Beaver Crossing, NE (68313)

5:48 PM CST on December 20, 2014 (GMT -0600)
Centennial Public School | Change Station
CLOSE
Current Station
Personal Weather Station
Location: Utica, NE
Elevation: 1590 ft
Nearby Weather Stations

Elev 1590 ft 40.89 °N, 97.35 °W | Updated 10 minutes ago

Overcast
Overcast
32.6 °F
Feels Like 27 °F
N
6.0
Wind Variable Wind from SE

Today
High -- | Low -- °F
--% Chance of Precip.
Yesterday
High -- | Low -- °F
Precip. -- in
7:49 AM 5:04 PM
Waning Crescent, 2% visible
Pressure 30.02 in
Visibility 0.5 miles
Clouds Overcast 200 ft
Windchill 27 °F
Dew Point 32 °F
Humidity 98%
Rainfall 0.00 in
Snow Depth Not available.
UV 0 out of 12
Pollen .10 out of 12
Air Quality Not available.
Flu Activity Not available.
METAR KJYR 202335Z AUTO 00000KT 1/2SM FZFG OVC002 00/00 A3002 RMK AO2

More Conditions Fewer Conditions

Pressure 30.02 in
Visibility 0.5 miles
Clouds Overcast 200 ft
Windchill 27 °F
Dew Point 32 °F
Humidity 98%
Rainfall 0.00 in
Snow Depth Not available.
UV 0 out of 12
Pollen .10 out of 12
Air Quality Not available.
Flu Activity Not available.
METAR KJYR 202335Z AUTO 00000KT 1/2SM FZFG OVC002 00/00 A3002 RMK AO2

More Conditions Fewer Conditions

10-Day Weather Forecast

Almanac

Astronomy

Dec. 20, 2014 Rise Set
Actual Time
Civil Twilight
Nautical Twilight
Astronomical Twilight
Moon
Length of Visible Light
Length of Day
Tomorrow will be .
, % of the Moon is Illuminated

Today's Extremes

State Highs State Lows

Community

WunderPhotos

Upload Photos

1,779,319 photos uploaded!

WunderBlogs® & News

Nearby

Air Quality

  Air Quality AQ Index Pollutant
Not available.

Snow Depth

Station Depth Elevation

Earthquake Activity

City Distance Mag. Time & Date
Minimum magnitude displayed is 2.5.

Coastal Water Temperatures

Place Temperature

Nearby Weather Stations